createdAt,value
2018-08-22T00:01:30.792Z,66.50
2018-08-22T00:04:06.429Z,66.00
2018-08-22T00:06:41.802Z,66.40
2018-08-22T00:09:17.101Z,66.00
2018-08-22T00:11:53.176Z,66.90
2018-08-22T00:14:29.202Z,66.80
2018-08-22T00:17:04.805Z,66.50
2018-08-22T00:19:40.062Z,66.70
2018-08-22T00:22:15.482Z,67.00
2018-08-22T00:24:50.809Z,66.70
2018-08-22T00:27:26.327Z,66.90
2018-08-22T00:30:01.661Z,67.20
2018-08-22T00:32:37.044Z,67.10
2018-08-22T00:35:12.517Z,67.20
2018-08-22T00:37:47.949Z,67.30
2018-08-22T00:40:23.273Z,67.60
2018-08-22T00:42:59.145Z,67.40
2018-08-22T00:45:34.586Z,67.30
2018-08-22T00:48:10.224Z,67.40
2018-08-22T00:50:45.466Z,68.40
2018-08-22T00:53:21.001Z,68.10
2018-08-22T00:55:56.325Z,67.90
2018-08-22T00:58:31.666Z,68.20
2018-08-22T01:01:07.119Z,67.90
2018-08-22T01:03:42.553Z,67.90
2018-08-22T01:06:17.893Z,67.50
2018-08-22T01:08:53.117Z,67.80
2018-08-22T01:11:28.405Z,68.00
2018-08-22T01:14:04.053Z,68.80
2018-08-22T01:16:39.374Z,68.20
2018-08-22T01:19:14.792Z,68.90
2018-08-22T01:21:50.241Z,68.60
2018-08-22T01:24:25.688Z,68.60
2018-08-22T01:27:01.273Z,68.70
2018-08-22T01:29:36.789Z,68.20
2018-08-22T01:32:12.211Z,68.50
2018-08-22T01:34:47.812Z,69.00
2018-08-22T01:37:22.385Z,68.70
2018-08-22T01:39:57.734Z,68.80
2018-08-22T01:42:32.949Z,69.00
2018-08-22T01:45:07.925Z,68.80
2018-08-22T01:47:42.989Z,69.00
2018-08-22T01:50:17.976Z,69.10
2018-08-22T01:52:53.336Z,69.20
2018-08-22T01:55:28.717Z,69.30
2018-08-22T01:58:04.233Z,69.90
2018-08-22T02:00:38.846Z,70.20
2018-08-22T02:03:13.765Z,70.00
2018-08-22T02:05:49.409Z,69.40
2018-08-22T02:08:24.258Z,69.50
2018-08-22T02:10:59.882Z,69.00
2018-08-22T02:13:35.757Z,68.80
2018-08-22T02:16:10.473Z,68.90
2018-08-22T02:18:45.359Z,68.80
2018-08-22T02:21:23.269Z,69.30
2018-08-22T02:23:57.944Z,69.60
2018-08-22T02:26:33.334Z,70.00
2018-08-22T02:29:08.239Z,70.10
2018-08-22T02:31:43.188Z,70.00
2018-08-22T02:34:17.912Z,70.40
2018-08-22T02:36:53.474Z,70.10
2018-08-22T02:39:28.313Z,70.40
2018-08-22T02:42:09.914Z,69.70
2018-08-22T02:44:44.688Z,71.10
2018-08-22T02:47:19.773Z,70.80
2018-08-22T02:49:54.746Z,70.80
2018-08-22T02:52:29.538Z,70.70
2018-08-22T02:55:04.385Z,71.10
2018-08-22T02:57:39.889Z,71.00
2018-08-22T03:00:14.493Z,71.00
2018-08-22T03:02:49.264Z,71.30
2018-08-22T03:05:24.311Z,71.50
2018-08-22T03:08:00.031Z,71.70
2018-08-22T03:10:34.881Z,71.80
2018-08-22T03:13:09.830Z,71.90
2018-08-22T03:15:44.692Z,72.10
2018-08-22T03:18:19.754Z,72.00
2018-08-22T03:20:54.688Z,71.90
2018-08-22T03:23:29.551Z,72.00
2018-08-22T03:26:04.962Z,71.90
2018-08-22T03:28:39.944Z,72.00
2018-08-22T03:31:15.679Z,72.10
2018-08-22T03:33:50.457Z,72.10
2018-08-22T03:36:25.245Z,72.20
2018-08-22T03:39:00.147Z,72.00
2018-08-22T03:41:35.073Z,72.30
2018-08-22T03:44:09.771Z,71.90
2018-08-22T03:46:44.988Z,72.00
2018-08-22T03:49:19.867Z,72.50
2018-08-22T03:51:55.335Z,72.10
2018-08-22T03:54:29.975Z,72.20
2018-08-22T03:57:05.041Z,72.60
2018-08-22T03:59:39.619Z,72.60
2018-08-22T04:02:14.667Z,72.50
2018-08-22T04:04:49.412Z,72.50
2018-08-22T04:07:24.093Z,72.40
2018-08-22T04:09:58.838Z,72.40
2018-08-22T04:12:33.489Z,72.50
2018-08-22T04:15:08.638Z,72.60
2018-08-22T04:17:44.186Z,72.40
2018-08-22T04:20:19.207Z,72.80
2018-08-22T04:22:57.094Z,72.70
2018-08-22T04:25:31.736Z,72.60
2018-08-22T04:28:06.505Z,72.50
2018-08-22T04:30:48.125Z,72.60
2018-08-22T04:33:22.978Z,72.50
2018-08-22T04:35:58.421Z,72.60
2018-08-22T04:38:33.105Z,72.70
2018-08-22T04:41:08.104Z,72.90
2018-08-22T04:43:44.940Z,72.90
2018-08-22T04:46:20.250Z,73.20
2018-08-22T04:48:54.947Z,72.90
2018-08-22T04:51:29.858Z,72.90
2018-08-22T04:54:04.837Z,72.90
2018-08-22T04:56:39.669Z,73.00
2018-08-22T04:59:14.343Z,73.00
2018-08-22T05:01:49.349Z,73.00
2018-08-22T05:04:24.481Z,73.20
2018-08-22T05:06:59.263Z,73.10
2018-08-22T05:09:34.014Z,73.10
2018-08-22T05:12:09.008Z,73.30
2018-08-22T05:14:43.983Z,73.30
2018-08-22T05:17:19.503Z,73.00
2018-08-22T05:19:54.329Z,73.00
2018-08-22T05:22:29.077Z,73.00
2018-08-22T05:25:03.903Z,73.40
2018-08-22T05:27:38.804Z,73.30
2018-08-22T05:30:14.086Z,73.00
2018-08-22T05:32:49.077Z,73.00
2018-08-22T05:35:24.994Z,73.10
2018-08-22T05:38:00.209Z,72.30
2018-08-22T05:40:34.983Z,72.00
2018-08-22T05:43:09.917Z,71.90
2018-08-22T05:45:44.675Z,72.70
2018-08-22T05:48:20.309Z,72.70
2018-08-22T05:50:55.765Z,73.10
2018-08-22T05:53:31.244Z,72.60
2018-08-22T05:56:06.613Z,72.60
2018-08-22T05:58:42.222Z,72.80
2018-08-22T06:01:17.549Z,72.20
2018-08-22T06:03:53.639Z,72.50
2018-08-22T06:06:29.530Z,71.70
2018-08-22T06:09:08.770Z,71.50
2018-08-22T06:11:45.112Z,71.30
2018-08-22T06:14:20.946Z,71.70
2018-08-22T06:16:56.074Z,71.70
2018-08-22T06:19:32.149Z,70.60
2018-08-22T06:22:08.070Z,72.00
2018-08-22T06:24:43.579Z,70.50
2018-08-22T06:27:19.420Z,70.30
2018-08-22T06:29:54.662Z,71.50
2018-08-22T06:32:31.213Z,71.90
2018-08-22T06:35:07.467Z,71.00
2018-08-22T06:37:42.676Z,69.20
2018-08-22T06:40:18.191Z,69.00
2018-08-22T06:42:53.627Z,69.20
2018-08-22T06:45:29.612Z,68.20
2018-08-22T06:48:05.253Z,68.00
2018-08-22T06:50:40.642Z,66.90
2018-08-22T06:53:17.688Z,66.80
2018-08-22T06:55:52.822Z,66.60
2018-08-22T06:58:28.114Z,66.80
2018-08-22T07:01:03.733Z,66.10
2018-08-22T07:03:39.233Z,66.00
2018-08-22T07:06:14.474Z,65.80
2018-08-22T07:08:50.189Z,65.40
2018-08-22T07:11:25.577Z,66.30
2018-08-22T07:14:01.117Z,66.50
2018-08-22T07:16:37.462Z,65.40
2018-08-22T07:19:13.077Z,66.40
2018-08-22T07:21:48.651Z,64.00
2018-08-22T07:24:24.038Z,63.70
2018-08-22T07:26:59.271Z,61.80
2018-08-22T07:29:34.936Z,61.50
2018-08-22T07:32:10.422Z,61.30
2018-08-22T07:34:45.868Z,60.70
2018-08-22T07:37:21.505Z,60.00
2018-08-22T07:39:56.906Z,59.40
2018-08-22T07:42:32.193Z,58.80
2018-08-22T07:45:07.642Z,59.50
2018-08-22T07:47:42.970Z,60.00
2018-08-22T07:50:18.533Z,59.30
2018-08-22T07:52:59.176Z,58.10
2018-08-22T07:55:38.020Z,57.30
2018-08-22T07:58:13.958Z,57.90
2018-08-22T08:00:49.391Z,57.20
2018-08-22T08:03:24.698Z,57.00
2018-08-22T08:06:00.209Z,56.40
2018-08-22T08:08:35.595Z,56.20
2018-08-22T08:11:11.200Z,56.80
2018-08-22T08:13:46.800Z,55.80
2018-08-22T08:16:22.883Z,55.10
2018-08-22T08:18:58.162Z,55.00
2018-08-22T08:21:34.058Z,54.20
2018-08-22T08:24:09.826Z,54.60
2018-08-22T08:26:45.277Z,53.60
2018-08-22T08:29:20.804Z,53.40
2018-08-22T08:31:56.358Z,52.20
2018-08-22T08:34:31.834Z,52.20
2018-08-22T08:37:07.633Z,52.80
2018-08-22T08:39:43.669Z,51.80
2018-08-22T08:42:19.172Z,51.30
2018-08-22T08:44:54.929Z,52.50
2018-08-22T08:47:30.672Z,52.30
2018-08-22T08:50:06.120Z,50.80
2018-08-22T08:52:41.767Z,50.70
2018-08-22T08:55:17.386Z,51.60
2018-08-22T08:57:52.584Z,50.30
2018-08-22T09:00:28.250Z,49.40
2018-08-22T09:03:03.713Z,48.20
2018-08-22T09:05:39.941Z,47.90
2018-08-22T09:08:15.329Z,46.80
2018-08-22T09:10:50.590Z,46.20
2018-08-22T09:13:25.872Z,45.60
2018-08-22T09:16:01.511Z,45.50
2018-08-22T09:18:36.717Z,43.80
2018-08-22T09:21:11.756Z,44.00
2018-08-22T09:23:47.750Z,43.80
2018-08-22T09:26:22.948Z,43.90
2018-08-22T09:28:57.925Z,41.80
2018-08-22T09:31:33.369Z,41.90
2018-08-22T09:34:08.599Z,40.70
2018-08-22T09:36:43.597Z,41.00
2018-08-22T09:39:18.696Z,40.90
2018-08-22T09:41:54.946Z,40.80
2018-08-22T09:44:30.253Z,39.90
2018-08-22T09:47:05.188Z,40.00
2018-08-22T09:49:40.326Z,39.40
2018-08-22T09:52:15.665Z,37.70
2018-08-22T09:55:01.858Z,37.40
2018-08-22T09:57:36.997Z,36.70
2018-08-22T10:00:17.458Z,37.50
2018-08-22T10:02:55.748Z,37.10
2018-08-22T10:05:30.710Z,36.80
2018-08-22T10:08:06.048Z,35.60
2018-08-22T10:10:41.063Z,35.90
2018-08-22T10:13:16.078Z,35.80
2018-08-22T10:15:51.785Z,34.70
2018-08-22T10:18:26.998Z,34.10
2018-08-22T10:21:02.097Z,32.60
2018-08-22T10:23:37.353Z,33.00
2018-08-22T10:26:19.548Z,33.50
2018-08-22T10:28:54.821Z,32.00
2018-08-22T10:31:29.870Z,33.20
2018-08-22T10:34:05.453Z,30.50
2018-08-22T10:36:40.821Z,30.60
2018-08-22T10:39:16.713Z,32.30
2018-08-22T10:41:52.139Z,30.80
2018-08-22T10:44:27.788Z,33.20
2018-08-22T10:47:03.076Z,32.50
2018-08-22T10:49:38.318Z,30.30
2018-08-22T10:52:14.492Z,31.40
2018-08-22T10:54:49.555Z,30.80
2018-08-22T10:57:24.697Z,30.90
2018-08-22T10:59:59.751Z,30.20
2018-08-22T11:02:34.967Z,29.10
2018-08-22T11:05:10.252Z,29.90
2018-08-22T11:07:45.329Z,29.70
2018-08-22T11:10:20.390Z,29.30
2018-08-22T11:12:55.946Z,28.30
2018-08-22T11:15:31.434Z,28.80
2018-08-22T11:18:06.605Z,27.80
2018-08-22T11:20:49.046Z,27.40
2018-08-22T11:23:35.351Z,27.00
2018-08-22T11:26:22.038Z,26.40
2018-08-22T11:29:08.304Z,27.20
2018-08-22T11:31:55.085Z,27.80
2018-08-22T11:34:41.553Z,28.00
2018-08-22T11:37:17.675Z,27.00
2018-08-22T11:39:53.043Z,27.20
2018-08-22T11:42:28.593Z,26.50
2018-08-22T11:45:03.860Z,26.40
2018-08-22T11:47:39.087Z,27.00
2018-08-22T11:50:14.350Z,27.90
2018-08-22T11:52:49.782Z,30.20
2018-08-22T11:55:25.122Z,28.50
2018-08-22T11:58:00.274Z,27.90
2018-08-22T12:00:36.033Z,27.60
2018-08-22T12:03:13.970Z,27.70
2018-08-22T12:05:49.042Z,27.00
2018-08-22T12:08:24.328Z,27.30
2018-08-22T12:11:00.220Z,25.90
2018-08-22T12:13:35.146Z,25.10
2018-08-22T12:16:10.354Z,26.40
2018-08-22T12:18:46.366Z,26.70
2018-08-22T12:21:21.394Z,25.40
2018-08-22T12:23:57.251Z,24.50
2018-08-22T12:26:32.216Z,24.90
2018-08-22T12:29:07.633Z,26.60
2018-08-22T12:31:42.772Z,27.30
2018-08-22T12:34:18.066Z,29.20
2018-08-22T12:36:53.019Z,28.60
2018-08-22T12:39:28.265Z,27.80
2018-08-22T12:42:03.916Z,27.60
2018-08-22T12:44:38.989Z,28.60
2018-08-22T12:47:14.262Z,29.70
2018-08-22T12:49:50.141Z,30.90
2018-08-22T12:52:25.345Z,30.70
2018-08-22T12:55:00.842Z,31.40
2018-08-22T12:57:36.391Z,31.90
2018-08-22T13:00:11.591Z,31.90
2018-08-22T13:02:46.746Z,32.40
2018-08-22T13:05:21.882Z,31.10
2018-08-22T13:07:56.957Z,32.00
2018-08-22T13:10:32.211Z,32.40
2018-08-22T13:13:07.334Z,32.70
2018-08-22T13:15:42.532Z,34.00
2018-08-22T13:18:18.149Z,34.60
2018-08-22T13:20:53.230Z,35.70
2018-08-22T13:23:28.388Z,36.10
2018-08-22T13:26:04.724Z,37.20
2018-08-22T13:28:40.009Z,38.00
2018-08-22T13:31:15.168Z,39.70
2018-08-22T13:33:50.535Z,40.70
2018-08-22T13:36:32.762Z,41.40
2018-08-22T13:39:09.464Z,40.70
2018-08-22T13:41:45.045Z,40.80
2018-08-22T13:44:20.551Z,47.60
2018-08-22T13:46:55.739Z,48.60
2018-08-22T13:49:31.476Z,47.80
2018-08-22T13:52:06.925Z,50.50
2018-08-22T13:54:42.641Z,51.80
2018-08-22T13:57:18.686Z,53.60
2018-08-22T13:59:54.617Z,55.30
2018-08-22T14:02:29.907Z,56.40
2018-08-22T14:05:05.907Z,56.40
2018-08-22T14:07:41.962Z,56.50
2018-08-22T14:10:17.242Z,56.30
2018-08-22T14:12:52.805Z,56.80
2018-08-22T14:15:28.214Z,57.60
2018-08-22T14:18:04.042Z,58.10
2018-08-22T14:20:39.332Z,59.60
2018-08-22T14:23:14.633Z,59.80
2018-08-22T14:25:50.150Z,60.80
2018-08-22T14:28:25.535Z,59.30
2018-08-22T14:31:01.710Z,59.10
2018-08-22T14:33:37.130Z,59.40
2018-08-22T14:36:13.167Z,59.30
2018-08-22T14:38:48.626Z,60.10
2018-08-22T14:41:23.584Z,58.90
2018-08-22T14:43:58.744Z,57.80
2018-08-22T14:46:34.575Z,53.90
2018-08-22T14:49:09.509Z,53.50
2018-08-22T14:51:44.677Z,52.40
2018-08-22T14:54:19.798Z,49.70
2018-08-22T14:56:54.810Z,49.40
2018-08-22T14:59:30.098Z,48.70
2018-08-22T15:02:05.391Z,48.00
2018-08-22T15:04:40.352Z,46.30
2018-08-22T15:07:15.726Z,44.90
2018-08-22T15:09:50.858Z,45.20
2018-08-22T15:12:25.991Z,45.40
2018-08-22T15:15:01.278Z,45.30
2018-08-22T15:17:36.383Z,45.60
2018-08-22T15:20:12.948Z,45.00
2018-08-22T15:22:48.237Z,44.30
2018-08-22T15:25:23.212Z,43.80
2018-08-22T15:27:58.307Z,42.80
2018-08-22T15:30:33.270Z,42.00
2018-08-22T15:33:08.293Z,42.50
2018-08-22T15:35:43.463Z,41.10
2018-08-22T15:38:18.829Z,41.00
2018-08-22T15:40:54.602Z,40.10
2018-08-22T15:43:29.851Z,37.70
2018-08-22T15:46:05.470Z,37.60
2018-08-22T15:48:40.659Z,36.50
2018-08-22T15:51:15.749Z,35.60
2018-08-22T15:54:07.406Z,35.60
2018-08-22T15:56:42.750Z,35.40
2018-08-22T15:59:18.958Z,35.30
2018-08-22T16:01:54.410Z,35.90
2018-08-22T16:04:29.557Z,35.60
2018-08-22T16:07:07.634Z,34.40
2018-08-22T16:09:42.890Z,35.80
2018-08-22T16:12:18.050Z,35.10
2018-08-22T16:14:53.305Z,35.60
2018-08-22T16:17:28.363Z,33.80
2018-08-22T16:20:03.434Z,34.20
2018-08-22T16:22:38.640Z,34.40
2018-08-22T16:25:14.026Z,34.60
2018-08-22T16:27:51.862Z,34.90
2018-08-22T16:30:27.051Z,35.60
2018-08-22T16:33:02.569Z,35.80
2018-08-22T16:35:38.184Z,35.90
2018-08-22T16:38:14.398Z,34.80
2018-08-22T16:40:53.923Z,35.00
2018-08-22T16:43:39.050Z,35.70
2018-08-22T16:46:16.059Z,35.30
2018-08-22T16:48:52.892Z,35.60
2018-08-22T16:51:28.099Z,35.40
2018-08-22T16:54:08.368Z,35.50
2018-08-22T16:56:44.250Z,34.90
2018-08-22T16:59:20.873Z,35.90
2018-08-22T17:01:56.203Z,36.40
2018-08-22T17:04:31.502Z,36.80
2018-08-22T17:07:12.534Z,37.60
2018-08-22T17:09:54.410Z,38.90
2018-08-22T17:12:34.174Z,40.10
2018-08-22T17:15:11.333Z,41.30
2018-08-22T17:17:46.577Z,42.30
2018-08-22T17:20:21.880Z,44.20
2018-08-22T17:22:57.133Z,45.80
2018-08-22T17:25:32.900Z,46.10
2018-08-22T17:28:08.321Z,46.70
2018-08-22T17:30:43.672Z,47.90
2018-08-22T17:33:19.329Z,48.60
2018-08-22T17:35:57.859Z,49.10
2018-08-22T17:38:33.202Z,49.60
2018-08-22T17:41:08.942Z,50.30
2018-08-22T17:43:59.614Z,51.40
2018-08-22T17:46:36.668Z,51.90
2018-08-22T17:49:12.491Z,51.70
2018-08-22T17:52:06.994Z,52.10
2018-08-22T17:54:42.361Z,52.10
2018-08-22T17:57:19.920Z,52.20
2018-08-22T17:59:57.017Z,52.50
2018-08-22T18:02:33.312Z,52.70
2018-08-22T18:05:09.292Z,53.30
2018-08-22T18:07:45.150Z,53.10
2018-08-22T18:10:20.606Z,53.90
2018-08-22T18:12:57.005Z,54.20
2018-08-22T18:15:32.758Z,54.40
2018-08-22T18:18:08.741Z,54.70
2018-08-22T18:20:46.740Z,55.10
2018-08-22T18:23:22.491Z,55.60
2018-08-22T18:26:03.435Z,56.60
2018-08-22T18:28:39.706Z,56.50
2018-08-22T18:31:15.005Z,56.70
2018-08-22T18:33:59.572Z,57.00
2018-08-22T18:36:35.527Z,57.50
2018-08-22T18:39:13.921Z,57.10
2018-08-22T18:41:49.476Z,57.40
2018-08-22T18:44:25.357Z,57.70
2018-08-22T18:47:01.560Z,57.60
2018-08-22T18:49:37.164Z,57.50
2018-08-22T18:52:12.686Z,57.70
2018-08-22T18:54:48.059Z,57.80
2018-08-22T18:57:23.789Z,58.20
2018-08-22T19:00:00.282Z,59.50
2018-08-22T19:02:36.139Z,58.70
2018-08-22T19:05:22.314Z,58.30
2018-08-22T19:08:02.679Z,58.10
2018-08-22T19:10:40.404Z,58.50
2018-08-22T19:13:22.792Z,59.00
2018-08-22T19:16:03.879Z,59.60
2018-08-22T19:18:40.128Z,59.40
2018-08-22T19:21:15.626Z,59.70
2018-08-22T19:23:56.099Z,60.10
2018-08-22T19:26:31.797Z,60.80
2018-08-22T19:29:07.555Z,61.50
2018-08-22T19:31:45.925Z,61.70
2018-08-22T19:34:21.300Z,61.90
2018-08-22T19:36:56.828Z,61.70
2018-08-22T19:39:32.594Z,61.70
2018-08-22T19:42:07.897Z,61.30
2018-08-22T19:44:43.567Z,61.30
2018-08-22T19:47:19.626Z,61.30
2018-08-22T19:49:55.186Z,62.10
2018-08-22T19:52:31.953Z,62.40
2018-08-22T19:55:07.933Z,62.10
2018-08-22T19:57:44.846Z,62.60
2018-08-22T20:00:20.975Z,62.90
2018-08-22T20:02:56.398Z,62.90
2018-08-22T20:05:55.055Z,63.00
2018-08-22T20:08:34.587Z,62.70
2018-08-22T20:11:09.871Z,62.70
2018-08-22T20:13:52.847Z,62.60
2018-08-22T20:16:28.405Z,62.20
2018-08-22T20:19:05.210Z,62.60
2018-08-22T20:21:42.591Z,62.70
2018-08-22T20:24:18.234Z,63.20
2018-08-22T20:26:59.114Z,63.20
2018-08-22T20:29:34.633Z,63.40
2018-08-22T20:32:14.725Z,63.80
2018-08-22T20:34:50.150Z,64.30
2018-08-22T20:37:25.809Z,65.00
2018-08-22T20:40:05.733Z,64.30
2018-08-22T20:42:41.558Z,64.60
2018-08-22T20:45:21.108Z,64.60
2018-08-22T20:48:01.792Z,64.70
2018-08-22T20:50:38.611Z,65.20
2018-08-22T20:53:17.454Z,65.10
2018-08-22T20:55:52.728Z,65.50
2018-08-22T20:58:32.214Z,65.60
2018-08-22T21:01:07.567Z,65.50
2018-08-22T21:03:43.486Z,65.10
2018-08-22T21:06:19.667Z,65.70
2018-08-22T21:08:54.943Z,65.60
2018-08-22T21:11:30.650Z,65.90
2018-08-22T21:14:05.937Z,65.90
2018-08-22T21:16:41.333Z,66.40
2018-08-22T21:19:16.877Z,66.50
2018-08-22T21:21:52.354Z,66.10
2018-08-22T21:24:28.013Z,66.10
2018-08-22T21:27:03.595Z,66.00
2018-08-22T21:29:39.749Z,66.10
2018-08-22T21:32:14.970Z,66.30
2018-08-22T21:34:50.553Z,66.50
2018-08-22T21:37:30.610Z,67.00
2018-08-22T21:40:07.137Z,66.90
2018-08-22T21:42:44.478Z,67.00
2018-08-22T21:45:20.150Z,67.90
2018-08-22T21:48:11.624Z,68.10
2018-08-22T21:50:47.300Z,67.90
2018-08-22T21:53:22.732Z,68.40
2018-08-22T21:55:58.259Z,67.80
2018-08-22T21:58:33.941Z,67.90
2018-08-22T22:01:09.366Z,67.60
2018-08-22T22:03:45.526Z,67.70
2018-08-22T22:06:20.775Z,67.90
2018-08-22T22:08:57.257Z,67.80
2018-08-22T22:11:32.738Z,68.40
2018-08-22T22:14:13.030Z,68.80
2018-08-22T22:16:48.300Z,69.20
2018-08-22T22:19:23.923Z,69.30
2018-08-22T22:22:00.318Z,69.50
2018-08-22T22:25:08.320Z,69.40
2018-08-22T22:27:45.235Z,70.00
2018-08-22T22:30:20.709Z,69.40
2018-08-22T22:32:59.219Z,69.20
2018-08-22T22:35:39.309Z,69.20
2018-08-22T22:38:14.560Z,69.30
2018-08-22T22:40:50.389Z,69.30
2018-08-22T22:43:25.730Z,69.80
2018-08-22T22:46:01.118Z,70.10
2018-08-22T22:48:40.443Z,70.50
2018-08-22T22:51:16.073Z,70.20
2018-08-22T22:53:51.485Z,70.00
2018-08-22T22:56:26.975Z,70.80
2018-08-22T22:59:02.385Z,70.30
2018-08-22T23:01:37.832Z,71.30
2018-08-22T23:04:13.864Z,71.30
2018-08-22T23:06:49.505Z,71.20
2018-08-22T23:09:24.909Z,70.90
2018-08-22T23:12:01.281Z,70.60
2018-08-22T23:14:36.660Z,70.50
2018-08-22T23:17:12.178Z,70.70
2018-08-22T23:19:48.197Z,70.70
2018-08-22T23:22:23.678Z,70.70
2018-08-22T23:24:59.270Z,70.90
2018-08-22T23:27:34.666Z,70.80
2018-08-22T23:30:10.421Z,70.90
2018-08-22T23:32:45.854Z,70.80
2018-08-22T23:35:24.553Z,71.30
2018-08-22T23:38:01.770Z,71.60
2018-08-22T23:40:37.717Z,71.80
2018-08-22T23:43:13.717Z,71.70
2018-08-22T23:45:53.302Z,71.70
2018-08-22T23:48:35.461Z,71.80
2018-08-22T23:51:13.578Z,72.00
2018-08-22T23:53:49.284Z,72.50
2018-08-22T23:56:31.490Z,72.50
2018-08-22T23:59:06.843Z,72.50
